Time;durP1;ratioP1;P1;durP2;ratioP2;P2;SDS_P1;SDS_P2;PMS_P1;PMS_P2;Temp;Humidity;BMP_temperature;BMP_pressure;BME280_temperature;BME280_humidity;BME280_pressure;Samples;Min_cycle;Max_cycle;Signal;HPM_P1;HPM_P2
2023/06/30 00:00:25;;;;;;;;;;;;;;;;;;6230760;28;19922;-68
2023/06/30 00:03:26;;;;;;;;;;;;;;;;;;6229195;28;19980;-70
2023/06/30 00:06:26;;;;;;;;;;;;;;;;;;6225259;28;19913;-70
2023/06/30 00:09:26;;;;;;;;;;;;;;;;;;6207852;28;19921;-70
2023/06/30 00:12:26;;;;;;;;;;;;;;;;;;6199646;28;19962;-69
2023/06/30 00:15:26;;;;;;;;;;;;;;;;;;6199611;28;19914;-69
2023/06/30 00:18:26;;;;;;;;;;;;;;;;;;6202169;28;19956;-69
2023/06/30 00:21:26;;;;;;;;;;;;;;;;;;6203737;28;19918;-70
2023/06/30 00:24:26;;;;;;;;;;;;;;;;;;6199097;28;20061;-70
2023/06/30 00:27:26;;;;;;;;;;;;;;;;;;6207517;28;20071;-69
2023/06/30 00:30:27;;;;;;;;;;;;;;;;;;6207206;28;19914;-70
2023/06/30 00:33:27;;;;;;;;;;;;;;;;;;6208555;28;19921;-70
2023/06/30 00:36:28;;;;;;;;;;;;;;;;;;6201918;28;19926;-71
2023/06/30 00:39:29;;;;;;;;;;;;;;;;;;6204795;28;19954;-70
2023/06/30 00:42:29;;;;;;;;;;;;;;;;;;6212244;28;19926;-70
2023/06/30 00:45:29;;;;;;;;;;;;;;;;;;6211778;28;19941;-70
2023/06/30 00:48:29;;;;;;;;;;;;;;;;;;6208105;28;20242;-70
2023/06/30 00:51:29;;;;;;;;;;;;;;;;;;6204558;28;20143;-70
2023/06/30 00:54:29;;;;;;;;;;;;;;;;;;6210277;28;20433;-70
2023/06/30 00:57:29;;;;;;;;;;;;;;;;;;6208169;28;20305;-69
2023/06/30 01:00:29;;;;;;;;;;;;;;;;;;6204125;28;20329;-70
2023/06/30 01:03:30;;;;;;;;;;;;;;;;;;6205926;28;19921;-68
2023/06/30 01:06:30;;;;;;;;;;;;;;;;;;6203583;28;19921;-70
2023/06/30 01:09:30;;;;;;;;;;;;;;;;;;6203225;28;19918;-70
2023/06/30 01:12:30;;;;;;;;;;;;;;;;;;6214170;28;19953;-69
2023/06/30 01:15:30;;;;;;;;;;;;;;;;;;6206725;28;19993;-69
2023/06/30 01:18:32;;;;;;;;;;;;;;;;;;6206570;28;20355;-68
2023/06/30 01:21:32;;;;;;;;;;;;;;;;;;6211415;28;19964;-69
2023/06/30 01:24:34;;;;;;;;;;;;;;;;;;6210044;28;19913;-71
2023/06/30 01:27:36;;;;;;;;;;;;;;;;;;6211759;28;20350;-69
2023/06/30 01:30:36;;;;;;;;;;;;;;;;;;6209324;28;19917;-72
2023/06/30 01:33:36;;;;;;;;;;;;;;;;;;6208436;28;19925;-70
2023/06/30 01:36:36;;;;;;;;;;;;;;;;;;6213591;28;19919;-69
2023/06/30 01:39:36;;;;;;;;;;;;;;;;;;6209180;28;20047;-70
2023/06/30 01:42:36;;;;;;;;;;;;;;;;;;6210990;28;19924;-70
2023/06/30 01:45:36;;;;;;;;;;;;;;;;;;6213180;28;19913;-71
2023/06/30 01:48:37;;;;;;;;;;;;;;;;;;6214308;28;19932;-70
2023/06/30 01:51:37;;;;;;;;;;;;;;;;;;6210209;28;19926;-70
2023/06/30 01:54:37;;;;;;;;;;;;;;;;;;6211612;28;19918;-71
2023/06/30 01:57:37;;;;;;;;;;;;;;;;;;6213127;28;20406;-71
2023/06/30 02:00:37;;;;;;;;;;;;;;;;;;6211954;28;20011;-70
2023/06/30 02:03:37;;;;;;;;;;;;;;;;;;6221869;28;19917;-70
2023/06/30 02:06:38;;;;;;;;;;;;;;;;;;6235232;28;19932;-71
2023/06/30 02:09:38;;;;;;;;;;;;;;;;;;6225097;28;19913;-72
2023/06/30 02:12:38;;;;;;;;;;;;;;;;;;6227368;28;19926;-70
2023/06/30 02:15:38;;;;;;;;;;;;;;;;;;6227723;28;19922;-71
2023/06/30 02:18:39;;;;;;;;;;;;;;;;;;6219107;28;19913;-69
2023/06/30 02:21:40;;;;;;;;;;;;;;;;;;6208212;28;19922;-70
2023/06/30 02:24:40;;;;;;;;;;;;;;;;;;6213343;28;19914;-70
2023/06/30 02:27:41;;;;;;;;;;;;;;;;;;6209702;28;19914;-71
2023/06/30 02:30:41;;;;;;;;;;;;;;;;;;6205148;28;19961;-72
2023/06/30 02:33:41;;;;;;;;;;;;;;;;;;6210189;28;19924;-70
2023/06/30 02:36:41;;;;;;;;;;;;;;;;;;6209836;28;19913;-70
2023/06/30 02:39:41;;;;;;;;;;;;;;;;;;6209395;28;20302;-69
2023/06/30 02:42:41;;;;;;;;;;;;;;;;;;6211033;28;20436;-70
2023/06/30 02:45:41;;;;;;;;;;;;;;;;;;6207114;28;19956;-70
2023/06/30 02:48:41;;;;;;;;;;;;;;;;;;6208974;28;20431;-69
2023/06/30 02:51:42;;;;;;;;;;;;;;;;;;6208567;28;20012;-70
2023/06/30 02:54:42;;;;;;;;;;;;;;;;;;6212676;28;19929;-69
2023/06/30 02:57:42;;;;;;;;;;;;;;;;;;6207200;28;19918;-69
2023/06/30 03:00:42;;;;;;;;;;;;;;;;;;6205198;28;19925;-69
2023/06/30 03:03:42;;;;;;;;;;;;;;;;;;6205997;28;19914;-70
2023/06/30 03:06:42;;;;;;;;;;;;;;;;;;6210003;28;20345;-69
2023/06/30 03:09:42;;;;;;;;;;;;;;;;;;6206314;28;19937;-69
2023/06/30 03:12:43;;;;;;;;;;;;;;;;;;6214645;28;19968;-70
2023/06/30 03:15:43;;;;;;;;;;;;;;;;;;6212936;28;20013;-70
2023/06/30 03:18:43;;;;;;;;;;;;;;;;;;6211030;28;19928;-71
2023/06/30 03:21:43;;;;;;;;;;;;;;;;;;6212062;28;19917;-70
2023/06/30 03:24:43;;;;;;;;;;;;;;;;;;6210144;28;19920;-71
2023/06/30 03:27:43;;;;;;;;;;;;;;;;;;6211515;28;19918;-70
2023/06/30 03:30:43;;;;;;;;;;;;;;;;;;6210225;28;19987;-71
2023/06/30 03:33:44;;;;;;;;;;;;;;;;;;6203843;28;20278;-70
2023/06/30 03:36:46;;;;;;;;;;;;;;;;;;6207767;28;20625;-71
2023/06/30 03:39:46;;;;;;;;;;;;;;;;;;6209835;28;19949;-71
2023/06/30 03:42:46;;;;;;;;;;;;;;;;;;6212223;28;19925;-71
2023/06/30 03:45:47;;;;;;;;;;;;;;;;;;6208519;28;19913;-71
2023/06/30 03:48:47;;;;;;;;;;;;;;;;;;6213196;28;19914;-70
2023/06/30 03:51:47;;;;;;;;;;;;;;;;;;6210502;28;20366;-70
2023/06/30 03:54:47;;;;;;;;;;;;;;;;;;6210109;28;19921;-71
2023/06/30 03:57:48;;;;;;;;;;;;;;;;;;6210350;28;19914;-70
2023/06/30 04:00:48;;;;;;;;;;;;;;;;;;6210034;28;20067;-70
2023/06/30 04:03:51;;;;;;;;;;;;;;;;;;6206033;28;20378;-71
2023/06/30 04:06:51;;;;;;;;;;;;;;;;;;6207196;28;20019;-70
2023/06/30 04:09:51;;;;;;;;;;;;;;;;;;6207020;28;19917;-70
2023/06/30 04:12:52;;;;;;;;;;;;;;;;;;6202408;28;20032;-69
2023/06/30 04:15:52;;;;;;;;;;;;;;;;;;6205169;28;19956;-71
2023/06/30 04:18:53;;;;;;;;;;;;;;;;;;6211610;28;19913;-70
2023/06/30 04:21:53;;;;;;;;;;;;;;;;;;6207870;28;19913;-71
2023/06/30 04:24:53;;;;;;;;;;;;;;;;;;6209614;28;19953;-71
2023/06/30 04:27:53;;;;;;;;;;;;;;;;;;6207245;28;19986;-71
2023/06/30 04:30:53;;;;;;;;;;;;;;;;;;6206041;28;20007;-70
2023/06/30 04:33:53;;;;;;;;;;;;;;;;;;6204312;28;20008;-68
2023/06/30 04:36:54;;;;;;;;;;;;;;;;;;6216287;28;19917;-70
2023/06/30 04:39:54;;;;;;;;;;;;;;;;;;6207746;28;19988;-71
2023/06/30 04:42:54;;;;;;;;;;;;;;;;;;6211076;28;20006;-69
2023/06/30 04:45:54;;;;;;;;;;;;;;;;;;6206360;28;19986;-71
2023/06/30 04:48:55;;;;;;;;;;;;;;;;;;6210414;28;19917;-70
2023/06/30 04:51:55;;;;;;;;;;;;;;;;;;6205511;28;20515;-70
2023/06/30 04:54:56;;;;;;;;;;;;;;;;;;6206334;28;20346;-69
2023/06/30 04:57:56;;;;;;;;;;;;;;;;;;6204446;28;20003;-69
2023/06/30 05:00:56;;;;;;;;;;;;;;;;;;6210495;28;19913;-69
2023/06/30 05:03:57;;;;;;;;;;;;;;;;;;6207053;28;20095;-69
2023/06/30 05:06:57;;;;;;;;;;;;;;;;;;5850281;28;10000149;-69
2023/06/30 05:09:57;;;;;;;;;;;;;;;;;;6206418;28;19971;-70
2023/06/30 05:12:57;;;;;;;;;;;;;;;;;;6203676;28;19929;-69
2023/06/30 05:15:57;;;;;;;;;;;;;;;;;;6202402;28;19918;-69
2023/06/30 05:18:57;;;;;;;;;;;;;;;;;;6197228;28;19922;-69
2023/06/30 05:21:57;;;;;;;;;;;;;;;;;;6204874;28;19924;-71
2023/06/30 05:24:57;;;;;;;;;;;;;;;;;;6198852;28;19972;-70
2023/06/30 05:27:57;;;;;;;;;;;;;;;;;;6202944;28;20099;-69
2023/06/30 05:30:58;;;;;;;;;;;;;;;;;;6202451;28;19922;-70
2023/06/30 05:33:58;;;;;;;;;;;;;;;;;;6203823;28;20012;-70
2023/06/30 05:36:58;;;;;;;;;;;;;;;;;;6207082;28;20279;-69
2023/06/30 05:39:58;;;;;;;;;;;;;;;;;;6209070;28;19921;-70
2023/06/30 05:42:58;;;;;;;;;;;;;;;;;;6212005;28;20017;-70
2023/06/30 05:45:58;;;;;;;;;;;;;;;;;;6210015;28;20702;-69
2023/06/30 05:49:02;;;;;;;;;;;;;;;;;;6214475;28;20362;-70
2023/06/30 05:52:02;;;;;;;;;;;;;;;;;;6222348;28;19925;-69
2023/06/30 05:55:02;;;;;;;;;;;;;;;;;;6221431;28;19945;-70
2023/06/30 05:58:02;;;;;;;;;;;;;;;;;;6215457;28;19921;-69
2023/06/30 06:01:02;;;;;;;;;;;;;;;;;;6207873;28;19994;-68
2023/06/30 06:04:02;;;;;;;;;;;;;;;;;;6207981;28;19967;-70
2023/06/30 06:07:05;;;;;;;;;;;;;;;;;;6204790;28;19925;-69
2023/06/30 06:10:05;;;;;;;;;;;;;;;;;;6204906;28;19917;-70
2023/06/30 06:13:05;;;;;;;;;;;;;;;;;;6199301;28;19940;-69
2023/06/30 06:16:05;;;;;;;;;;;;;;;;;;6208103;28;19967;-69
2023/06/30 06:19:05;;;;;;;;;;;;;;;;;;6212663;28;20012;-71
2023/06/30 06:22:05;;;;;;;;;;;;;;;;;;6208525;28;19913;-70
2023/06/30 06:25:05;;;;;;;;;;;;;;;;;;6219788;28;19909;-69
2023/06/30 06:28:06;;;;;;;;;;;;;;;;;;6215234;28;20498;-70
2023/06/30 06:31:06;;;;;;;;;;;;;;;;;;6211347;28;19974;-69
2023/06/30 06:34:06;;;;;;;;;;;;;;;;;;6214945;28;20396;-69
2023/06/30 06:37:06;;;;;;;;;;;;;;;;;;6212281;28;19920;-69
2023/06/30 06:40:06;;;;;;;;;;;;;;;;;;6212742;28;20298;-70
2023/06/30 06:43:06;;;;;;;;;;;;;;;;;;6210251;28;20330;-71
2023/06/30 06:46:06;;;;;;;;;;;;;;;;;;6213086;28;19914;-72
2023/06/30 06:49:06;;;;;;;;;;;;;;;;;;6218521;28;19913;-71
2023/06/30 06:52:06;;;;;;;;;;;;;;;;;;6215886;28;19964;-71
2023/06/30 06:55:07;;;;;;;;;;;;;;;;;;6210585;28;19999;-71
2023/06/30 06:58:07;;;;;;;;;;;;;;;;;;6213909;28;20032;-70
2023/06/30 07:01:07;;;;;;;;;;;;;;;;;;6207305;28;19913;-69
2023/06/30 07:04:07;;;;;;;;;;;;;;;;;;6204372;28;19913;-69
2023/06/30 07:07:07;;;;;;;;;;;;;;;;;;6202685;28;20835;-69
2023/06/30 07:10:07;;;;;;;;;;;;;;;;;;6205902;28;19935;-70
2023/06/30 07:13:08;;;;;;;;;;;;;;;;;;6200872;28;20266;-69
2023/06/30 07:16:08;;;;;;;;;;;;;;;;;;6199869;28;19925;-69
2023/06/30 07:19:08;;;;;;;;;;;;;;;;;;6206747;28;20290;-71
2023/06/30 07:22:08;;;;;;;;;;;;;;;;;;6207951;28;20350;-71
2023/06/30 07:25:08;;;;;;;;;;;;;;;;;;6208356;28;19975;-70
2023/06/30 07:28:08;;;;;;;;;;;;;;;;;;6207652;28;20013;-72
2023/06/30 07:31:08;;;;;;;;;;;;;;;;;;6206356;28;19921;-72
2023/06/30 07:34:08;;;;;;;;;;;;;;;;;;6199840;28;19948;-72
2023/06/30 07:37:09;;;;;;;;;;;;;;;;;;6200670;28;19924;-65
2023/06/30 07:40:09;;;;;;;;;;;;;;;;;;6200312;28;20329;-67
2023/06/30 07:43:09;;;;;;;;;;;;;;;;;;6198937;28;19928;-64
2023/06/30 07:46:09;;;;;;;;;;;;;;;;;;6203894;28;19921;-63
2023/06/30 07:49:09;;;;;;;;;;;;;;;;;;6199982;28;19932;-64
2023/06/30 07:52:09;;;;;;;;;;;;;;;;;;6198580;28;19964;-62
2023/06/30 07:55:10;;;;;;;;;;;;;;;;;;6199419;28;19917;-67
2023/06/30 07:58:10;;;;;;;;;;;;;;;;;;6201417;28;19922;-66
2023/06/30 08:01:10;;;;;;;;;;;;;;;;;;6200286;28;19958;-67
2023/06/30 08:04:11;;;;;;;;;;;;;;;;;;6201324;28;19921;-67
2023/06/30 08:07:11;;;;;;;;;;;;;;;;;;6205372;28;19922;-67
2023/06/30 08:10:11;;;;;;;;;;;;;;;;;;6199058;28;19952;-66
2023/06/30 08:13:11;;;;;;;;;;;;;;;;;;6200189;28;20119;-69
2023/06/30 08:16:11;;;;;;;;;;;;;;;;;;6201628;28;19926;-66
2023/06/30 08:19:11;;;;;;;;;;;;;;;;;;6200626;28;20008;-66
2023/06/30 08:22:15;;;;;;;;;;;;;;;;;;6200015;28;20338;-66
2023/06/30 08:25:16;;;;;;;;;;;;;;;;;;6198491;28;19929;-65
2023/06/30 08:28:16;;;;;;;;;;;;;;;;;;6200779;28;20428;-65
2023/06/30 08:31:16;;;;;;;;;;;;;;;;;;6201183;28;19923;-66
2023/06/30 08:34:16;;;;;;;;;;;;;;;;;;6200722;28;19941;-67
2023/06/30 08:37:16;;;;;;;;;;;;;;;;;;6212609;28;20256;-66
2023/06/30 08:40:16;;;;;;;;;;;;;;;;;;6211757;28;20015;-66
2023/06/30 08:43:16;;;;;;;;;;;;;;;;;;6195344;28;20443;-66
2023/06/30 08:46:17;;;;;;;;;;;;;;;;;;6201610;28;20391;-71
2023/06/30 08:49:17;;;;;;;;;;;;;;;;;;6200727;28;20011;-72
2023/06/30 08:52:17;;;;;;;;;;;;;;;;;;6200465;28;20297;-73
2023/06/30 08:55:18;;;;;;;;;;;;;;;;;;6201831;28;19957;-72
2023/06/30 08:58:18;;;;;;;;;;;;;;;;;;6185435;28;19928;-71
2023/06/30 09:01:18;;;;;;;;;;;;;;;;;;6171261;28;19928;-71
2023/06/30 09:04:18;;;;;;;;;;;;;;;;;;6176702;28;20920;-70
2023/06/30 09:07:18;;;;;;;;;;;;;;;;;;6180594;28;19925;-70
2023/06/30 09:10:18;;;;;;;;;;;;;;;;;;6183680;28;20079;-71
2023/06/30 09:13:18;;;;;;;;;;;;;;;;;;6180045;28;19936;-72
2023/06/30 09:16:19;;;;;;;;;;;;;;;;;;6176782;28;19992;-69
2023/06/30 09:19:19;;;;;;;;;;;;;;;;;;6177286;28;20298;-68
2023/06/30 09:22:19;;;;;;;;;;;;;;;;;;6175977;28;19925;-71
2023/06/30 09:25:19;;;;;;;;;;;;;;;;;;6190952;28;19921;-71
2023/06/30 09:28:19;;;;;;;;;;;;;;;;;;6192404;28;19917;-73
2023/06/30 09:31:19;;;;;;;;;;;;;;;;;;6190952;28;19933;-72
2023/06/30 09:34:19;;;;;;;;;;;;;;;;;;6182044;28;20011;-71
2023/06/30 09:37:20;;;;;;;;;;;;;;;;;;6185288;28;20259;-71
2023/06/30 09:40:20;;;;;;;;;;;;;;;;;;6180517;28;20290;-71
2023/06/30 09:43:20;;;;;;;;;;;;;;;;;;6178171;28;19921;-70
2023/06/30 09:46:21;;;;;;;;;;;;;;;;;;6177573;28;20255;-70
2023/06/30 09:49:21;;;;;;;;;;;;;;;;;;6182390;28;20271;-70
2023/06/30 09:52:21;;;;;;;;;;;;;;;;;;6177746;28;19955;-70
2023/06/30 09:55:21;;;;;;;;;;;;;;;;;;6179944;28;19941;-71
2023/06/30 09:58:21;;;;;;;;;;;;;;;;;;6185834;28;20506;-72
2023/06/30 10:01:23;;;;;;;;;;;;;;;;;;6175637;28;20621;-70
2023/06/30 10:04:24;;;;;;;;;;;;;;;;;;6176524;28;19933;-69
2023/06/30 10:07:24;;;;;;;;;;;;;;;;;;6175807;28;19932;-71
2023/06/30 10:10:24;;;;;;;;;;;;;;;;;;6174608;28;19926;-68
2023/06/30 10:13:24;;;;;;;;;;;;;;;;;;6170715;28;19931;-73
2023/06/30 10:16:25;;;;;;;;;;;;;;;;;;6172603;28;19922;-69
2023/06/30 10:19:25;;;;;;;;;;;;;;;;;;6178789;28;20001;-68
2023/06/30 10:22:25;;;;;;;;;;;;;;;;;;6172855;28;19928;-69
2023/06/30 10:25:25;;;;;;;;;;;;;;;;;;6173855;28;20320;-72
2023/06/30 10:28:26;;;;;;;;;;;;;;;;;;6172001;28;19952;-68
2023/06/30 10:31:26;;;;;;;;;;;;;;;;;;6177509;28;21253;-70
2023/06/30 10:34:26;;;;;;;;;;;;;;;;;;6172829;28;20294;-70
2023/06/30 10:37:27;;;;;;;;;;;;;;;;;;6174390;28;20033;-70
2023/06/30 10:40:27;;;;;;;;;;;;;;;;;;6186851;28;20272;-70
2023/06/30 10:43:27;;;;;;;;;;;;;;;;;;6180503;28;20388;-71
2023/06/30 10:46:27;;;;;;;;;;;;;;;;;;6174776;28;20615;-68
2023/06/30 10:49:27;;;;;;;;;;;;;;;;;;6175254;28;19972;-71
2023/06/30 10:52:27;;;;;;;;;;;;;;;;;;6175401;28;20274;-71
2023/06/30 10:55:28;;;;;;;;;;;;;;;;;;6178229;28;19922;-71
2023/06/30 10:58:28;;;;;;;;;;;;;;;;;;6178889;28;19944;-72
2023/06/30 11:01:28;;;;;;;;;;;;;;;;;;6178172;28;20173;-71
2023/06/30 11:04:28;;;;;;;;;;;;;;;;;;6175620;28;19925;-71
2023/06/30 11:07:29;;;;;;;;;;;;;;;;;;6187304;28;19921;-70
2023/06/30 11:10:29;;;;;;;;;;;;;;;;;;6178795;28;19921;-70
2023/06/30 11:13:29;;;;;;;;;;;;;;;;;;6177340;28;19924;-72
2023/06/30 11:16:29;;;;;;;;;;;;;;;;;;6181829;28;20019;-70
2023/06/30 11:19:29;;;;;;;;;;;;;;;;;;6174576;28;19943;-71
2023/06/30 11:22:32;;;;;;;;;;;;;;;;;;6178084;28;19920;-70
2023/06/30 11:25:33;;;;;;;;;;;;;;;;;;6175652;28;19917;-70
2023/06/30 11:28:33;;;;;;;;;;;;;;;;;;6172946;28;19940;-70
2023/06/30 11:31:33;;;;;;;;;;;;;;;;;;6169221;28;20401;-71
2023/06/30 11:34:33;;;;;;;;;;;;;;;;;;6169585;28;19925;-70
2023/06/30 11:37:36;;;;;;;;;;;;;;;;;;6168361;28;19956;-70
2023/06/30 11:40:36;;;;;;;;;;;;;;;;;;6174460;28;19964;-70
2023/06/30 11:43:36;;;;;;;;;;;;;;;;;;6172807;28;19932;-71
2023/06/30 11:46:37;;;;;;;;;;;;;;;;;;6177543;28;19921;-69
2023/06/30 11:49:37;;;;;;;;;;;;;;;;;;6166654;28;19953;-70
2023/06/30 11:52:37;;;;;;;;;;;;;;;;;;6168197;28;19925;-70
2023/06/30 11:55:37;;;;;;;;;;;;;;;;;;6175292;28;19924;-69
2023/06/30 11:58:37;;;;;;;;;;;;;;;;;;6171828;28;19945;-72
2023/06/30 12:01:37;;;;;;;;;;;;;;;;;;6171396;28;20888;-69
2023/06/30 12:04:38;;;;;;;;;;;;;;;;;;6176090;28;20335;-70
2023/06/30 12:07:38;;;;;;;;;;;;;;;;;;6173749;28;19933;-70
2023/06/30 12:10:38;;;;;;;;;;;;;;;;;;6178445;28;20395;-72
2023/06/30 12:13:41;;;;;;;;;;;;;;;;;;6181544;28;19925;-72
2023/06/30 12:16:41;;;;;;;;;;;;;;;;;;6181769;28;19922;-70
2023/06/30 12:19:42;;;;;;;;;;;;;;;;;;6182377;28;19925;-70
2023/06/30 12:22:44;;;;;;;;;;;;;;;;;;6176632;28;20507;-72
2023/06/30 12:25:45;;;;;;;;;;;;;;;;;;6181021;28;20826;-70
2023/06/30 12:28:45;;;;;;;;;;;;;;;;;;6184213;28;19921;-72
2023/06/30 12:31:47;;;;;;;;;;;;;;;;;;6185684;28;19928;-71
2023/06/30 12:34:47;;;;;;;;;;;;;;;;;;6184192;28;20008;-70
2023/06/30 12:37:48;;;;;;;;;;;;;;;;;;6178469;28;21237;-70
2023/06/30 12:40:48;;;;;;;;;;;;;;;;;;6182220;28;19913;-71
2023/06/30 12:43:49;;;;;;;;;;;;;;;;;;6183160;28;20016;-74
2023/06/30 12:46:49;;;;;;;;;;;;;;;;;;6180726;28;19932;-72
2023/06/30 12:49:49;;;;;;;;;;;;;;;;;;6195613;28;19914;-71
2023/06/30 12:52:49;;;;;;;;;;;;;;;;;;6211059;28;19961;-71
2023/06/30 12:55:49;;;;;;;;;;;;;;;;;;6203970;28;19917;-70
2023/06/30 12:58:50;;;;;;;;;;;;;;;;;;6204482;28;19917;-71
2023/06/30 13:01:50;;;;;;;;;;;;;;;;;;6202811;28;20218;-72
2023/06/30 13:04:51;;;;;;;;;;;;;;;;;;6205330;28;19964;-72
2023/06/30 13:07:51;;;;;;;;;;;;;;;;;;6201548;28;19956;-70
2023/06/30 13:10:51;;;;;;;;;;;;;;;;;;6204374;28;20132;-71
2023/06/30 13:13:52;;;;;;;;;;;;;;;;;;6206912;28;19924;-70
2023/06/30 13:16:52;;;;;;;;;;;;;;;;;;6202106;28;20435;-73
2023/06/30 13:19:52;;;;;;;;;;;;;;;;;;6206243;28;20426;-72
2023/06/30 13:22:52;;;;;;;;;;;;;;;;;;6202280;28;20363;-72
2023/06/30 13:25:52;;;;;;;;;;;;;;;;;;6203485;28;19924;-72
2023/06/30 13:28:52;;;;;;;;;;;;;;;;;;6203942;28;19917;-71
2023/06/30 13:31:52;;;;;;;;;;;;;;;;;;6200075;28;19929;-70
2023/06/30 13:34:54;;;;;;;;;;;;;;;;;;6201916;28;19921;-72
2023/06/30 13:37:54;;;;;;;;;;;;;;;;;;6207705;28;19913;-73
2023/06/30 13:40:54;;;;;;;;;;;;;;;;;;6203810;28;20274;-72
2023/06/30 13:43:55;;;;;;;;;;;;;;;;;;6200065;28;19921;-73
2023/06/30 13:46:55;;;;;;;;;;;;;;;;;;6206256;28;20007;-73
2023/06/30 13:49:55;;;;;;;;;;;;;;;;;;6202883;28;20484;-72
2023/06/30 13:52:55;;;;;;;;;;;;;;;;;;6205900;28;19913;-71
2023/06/30 13:55:55;;;;;;;;;;;;;;;;;;6205024;28;19917;-72
2023/06/30 13:58:55;;;;;;;;;;;;;;;;;;6207849;28;20621;-71
2023/06/30 14:01:55;;;;;;;;;;;;;;;;;;6203345;28;20434;-73
2023/06/30 14:04:55;;;;;;;;;;;;;;;;;;6210259;28;20324;-73
2023/06/30 14:07:56;;;;;;;;;;;;;;;;;;6217969;28;20000;-73
2023/06/30 14:10:56;;;;;;;;;;;;;;;;;;6218149;28;20277;-73
2023/06/30 14:13:56;;;;;;;;;;;;;;;;;;6205762;28;19918;-72
2023/06/30 14:16:56;;;;;;;;;;;;;;;;;;6208828;28;19989;-71
2023/06/30 14:19:56;;;;;;;;;;;;;;;;;;6205871;28;20384;-72
2023/06/30 14:22:56;;;;;;;;;;;;;;;;;;5860945;28;10000390;-72
2023/06/30 14:25:56;;;;;;;;;;;;;;;;;;6214367;28;19913;-71
2023/06/30 14:28:57;;;;;;;;;;;;;;;;;;6214413;28;19910;-72
2023/06/30 14:31:57;;;;;;;;;;;;;;;;;;6210375;28;19925;-71
2023/06/30 14:34:58;;;;;;;;;;;;;;;;;;6212620;28;19921;-72
2023/06/30 14:37:58;;;;;;;;;;;;;;;;;;6206026;28;19949;-70
2023/06/30 14:40:58;;;;;;;;;;;;;;;;;;6203674;28;20383;-72
2023/06/30 14:43:58;;;;;;;;;;;;;;;;;;6212006;28;19921;-72
2023/06/30 14:46:59;;;;;;;;;;;;;;;;;;6212927;28;20011;-72
2023/06/30 14:50:00;;;;;;;;;;;;;;;;;;6219260;28;19918;-71
2023/06/30 14:53:00;;;;;;;;;;;;;;;;;;6216752;28;19921;-71
2023/06/30 14:56:00;;;;;;;;;;;;;;;;;;6202818;28;19940;-72
2023/06/30 14:59:00;;;;;;;;;;;;;;;;;;6207029;28;19921;-72
2023/06/30 15:02:00;;;;;;;;;;;;;;;;;;6218072;28;19913;-72
2023/06/30 15:05:00;;;;;;;;;;;;;;;;;;6205748;28;19914;-71
2023/06/30 15:08:01;;;;;;;;;;;;;;;;;;6209489;28;19913;-71
2023/06/30 15:11:01;;;;;;;;;;;;;;;;;;6210894;28;19914;-72
2023/06/30 15:14:01;;;;;;;;;;;;;;;;;;6211836;28;19940;-71
2023/06/30 15:17:01;;;;;;;;;;;;;;;;;;6200446;28;19957;-73
2023/06/30 15:20:02;;;;;;;;;;;;;;;;;;6225770;28;19976;-73
2023/06/30 15:23:02;;;;;;;;;;;;;;;;;;6215214;28;19925;-72
2023/06/30 15:26:02;;;;;;;;;;;;;;;;;;6212528;28;19925;-73
2023/06/30 15:29:02;;;;;;;;;;;;;;;;;;6223357;28;19922;-71
2023/06/30 15:32:02;;;;;;;;;;;;;;;;;;6219953;28;19948;-71
2023/06/30 15:35:03;;;;;;;;;;;;;;;;;;6203655;28;19926;-72
2023/06/30 15:38:03;;;;;;;;;;;;;;;;;;6216382;28;19913;-72
2023/06/30 15:41:04;;;;;;;;;;;;;;;;;;6225899;28;19916;-73
2023/06/30 15:44:04;;;;;;;;;;;;;;;;;;6222190;28;20286;-70
2023/06/30 15:47:04;;;;;;;;;;;;;;;;;;6207644;28;19914;-71
2023/06/30 15:50:04;;;;;;;;;;;;;;;;;;6205872;28;19916;-71
2023/06/30 15:53:07;;;;;;;;;;;;;;;;;;6198351;28;19914;-71
2023/06/30 15:56:07;;;;;;;;;;;;;;;;;;6202807;28;20013;-72
2023/06/30 15:59:07;;;;;;;;;;;;;;;;;;6207862;28;20345;-73
2023/06/30 16:02:08;;;;;;;;;;;;;;;;;;6211776;28;19917;-72
2023/06/30 16:05:08;;;;;;;;;;;;;;;;;;6212082;28;19921;-72
2023/06/30 16:08:08;;;;;;;;;;;;;;;;;;6207564;28;19914;-74
2023/06/30 16:11:08;;;;;;;;;;;;;;;;;;6211931;28;19917;-71
2023/06/30 16:14:08;;;;;;;;;;;;;;;;;;6217243;28;19917;-70
2023/06/30 16:17:08;;;;;;;;;;;;;;;;;;6217722;28;20008;-70
2023/06/30 16:20:08;;;;;;;;;;;;;;;;;;6214698;28;19913;-70
2023/06/30 16:23:08;;;;;;;;;;;;;;;;;;5871783;28;9999816;-72
2023/06/30 16:26:09;;;;;;;;;;;;;;;;;;6216186;28;19910;-70
2023/06/30 16:29:09;;;;;;;;;;;;;;;;;;6207331;28;20003;-68
2023/06/30 16:32:09;;;;;;;;;;;;;;;;;;6207665;28;19976;-71
2023/06/30 16:35:09;;;;;;;;;;;;;;;;;;6209537;28;20066;-71
2023/06/30 16:38:09;;;;;;;;;;;;;;;;;;6213354;28;19977;-70
2023/06/30 16:41:09;;;;;;;;;;;;;;;;;;6216059;28;20374;-70
2023/06/30 16:44:09;;;;;;;;;;;;;;;;;;6208215;28;20004;-71
2023/06/30 16:47:09;;;;;;;;;;;;;;;;;;6208301;28;19913;-70
2023/06/30 16:50:10;;;;;;;;;;;;;;;;;;6207835;28;19944;-70
2023/06/30 16:53:10;;;;;;;;;;;;;;;;;;6214333;28;19909;-68
2023/06/30 16:56:10;;;;;;;;;;;;;;;;;;6213883;28;20328;-68
2023/06/30 16:59:10;;;;;;;;;;;;;;;;;;6220197;28;20346;-68
2023/06/30 17:02:10;;;;;;;;;;;;;;;;;;6230424;28;20366;-71
2023/06/30 17:05:10;;;;;;;;;;;;;;;;;;6218048;28;19924;-71
2023/06/30 17:08:10;;;;;;;;;;;;;;;;;;6215659;28;19953;-73
2023/06/30 17:11:10;;;;;;;;;;;;;;;;;;6221351;28;19913;-72
2023/06/30 17:14:11;;;;;;;;;;;;;;;;;;6213493;28;20286;-71
2023/06/30 17:17:12;;;;;;;;;;;;;;;;;;6212293;28;19917;-73
2023/06/30 17:20:12;;;;;;;;;;;;;;;;;;6214818;28;19913;-74
2023/06/30 17:23:12;;;;;;;;;;;;;;;;;;6206185;28;19936;-73
2023/06/30 17:26:12;;;;;;;;;;;;;;;;;;6216821;28;19926;-72
2023/06/30 17:29:13;;;;;;;;;;;;;;;;;;6210705;28;19920;-72
2023/06/30 17:32:13;;;;;;;;;;;;;;;;;;6219650;28;19913;-71
2023/06/30 17:35:13;;;;;;;;;;;;;;;;;;6208461;28;19917;-72
2023/06/30 17:38:13;;;;;;;;;;;;;;;;;;6208904;28;19936;-71
2023/06/30 17:41:13;;;;;;;;;;;;;;;;;;6218269;28;19914;-69
2023/06/30 17:44:13;;;;;;;;;;;;;;;;;;6219390;28;19925;-72
2023/06/30 17:47:13;;;;;;;;;;;;;;;;;;6211643;28;19975;-73
2023/06/30 17:50:14;;;;;;;;;;;;;;;;;;6210641;28;20369;-71
2023/06/30 17:53:14;;;;;;;;;;;;;;;;;;6207159;28;19995;-71
2023/06/30 17:56:14;;;;;;;;;;;;;;;;;;6216162;28;20300;-72
2023/06/30 17:59:14;;;;;;;;;;;;;;;;;;6215054;28;20406;-72
2023/06/30 18:02:14;;;;;;;;;;;;;;;;;;6217716;28;20382;-72
2023/06/30 18:05:15;;;;;;;;;;;;;;;;;;6218068;28;21130;-73
2023/06/30 18:08:15;;;;;;;;;;;;;;;;;;6214632;28;21726;-73
2023/06/30 18:11:15;;;;;;;;;;;;;;;;;;6216524;28;21773;-72
2023/06/30 18:14:15;;;;;;;;;;;;;;;;;;6215694;28;21103;-72
2023/06/30 18:17:15;;;;;;;;;;;;;;;;;;6216820;28;19951;-72
2023/06/30 18:20:16;;;;;;;;;;;;;;;;;;6201584;28;19917;-73
2023/06/30 18:23:16;;;;;;;;;;;;;;;;;;6220640;28;19964;-71
2023/06/30 18:26:16;;;;;;;;;;;;;;;;;;6224657;28;19944;-72
2023/06/30 18:29:16;;;;;;;;;;;;;;;;;;6206768;28;20003;-72
2023/06/30 18:32:16;;;;;;;;;;;;;;;;;;6209876;28;19909;-72
2023/06/30 18:35:16;;;;;;;;;;;;;;;;;;6218132;28;19939;-73
2023/06/30 18:38:17;;;;;;;;;;;;;;;;;;6210195;28;19914;-73
2023/06/30 18:41:17;;;;;;;;;;;;;;;;;;6202737;28;19971;-73
2023/06/30 18:44:17;;;;;;;;;;;;;;;;;;6214778;28;19923;-74
2023/06/30 18:47:17;;;;;;;;;;;;;;;;;;6210892;28;19910;-74
2023/06/30 18:50:17;;;;;;;;;;;;;;;;;;6212386;28;19913;-74
2023/06/30 18:53:17;;;;;;;;;;;;;;;;;;6215800;28;19968;-72
2023/06/30 18:56:21;;;;;;;;;;;;;;;;;;6212635;28;20285;-72
2023/06/30 18:59:21;;;;;;;;;;;;;;;;;;6212565;28;20331;-73
2023/06/30 19:02:21;;;;;;;;;;;;;;;;;;6212668;28;19925;-73
2023/06/30 19:05:21;;;;;;;;;;;;;;;;;;6210965;28;20024;-73
2023/06/30 19:08:21;;;;;;;;;;;;;;;;;;6211051;28;20020;-70
2023/06/30 19:11:22;;;;;;;;;;;;;;;;;;6202833;28;20013;-72
2023/06/30 19:14:22;;;;;;;;;;;;;;;;;;6210537;28;19922;-73
2023/06/30 19:17:22;;;;;;;;;;;;;;;;;;6206356;28;20350;-71
2023/06/30 19:20:22;;;;;;;;;;;;;;;;;;6213759;28;20274;-73
2023/06/30 19:23:22;;;;;;;;;;;;;;;;;;6212330;28;19967;-72
2023/06/30 19:26:22;;;;;;;;;;;;;;;;;;6221448;28;19929;-74
2023/06/30 19:29:22;;;;;;;;;;;;;;;;;;6226704;28;20282;-74
2023/06/30 19:32:22;;;;;;;;;;;;;;;;;;6214754;28;19914;-73
2023/06/30 19:35:23;;;;;;;;;;;;;;;;;;6228210;28;19918;-73
2023/06/30 19:38:23;;;;;;;;;;;;;;;;;;6207932;28;20013;-73
2023/06/30 19:41:23;;;;;;;;;;;;;;;;;;6205607;28;19914;-72
2023/06/30 19:44:23;;;;;;;;;;;;;;;;;;6207584;28;19924;-73
2023/06/30 19:47:23;;;;;;;;;;;;;;;;;;6201342;28;19914;-73
2023/06/30 19:50:24;;;;;;;;;;;;;;;;;;5861426;28;10000211;-68
2023/06/30 19:53:24;;;;;;;;;;;;;;;;;;6200702;28;19925;-68
2023/06/30 19:56:25;;;;;;;;;;;;;;;;;;6203536;28;19913;-66
2023/06/30 19:59:25;;;;;;;;;;;;;;;;;;6203123;28;19929;-68
2023/06/30 20:02:26;;;;;;;;;;;;;;;;;;6199942;28;19925;-68
2023/06/30 20:05:26;;;;;;;;;;;;;;;;;;6203627;28;19917;-67
2023/06/30 20:08:26;;;;;;;;;;;;;;;;;;6200464;28;19922;-66
2023/06/30 20:11:26;;;;;;;;;;;;;;;;;;6201074;28;20354;-66
2023/06/30 20:14:26;;;;;;;;;;;;;;;;;;6198552;28;20404;-68
2023/06/30 20:17:26;;;;;;;;;;;;;;;;;;6203508;28;19970;-68
2023/06/30 20:20:27;;;;;;;;;;;;;;;;;;6211394;28;21304;-67
2023/06/30 20:23:27;;;;;;;;;;;;;;;;;;6203754;28;20482;-66
2023/06/30 20:26:28;;;;;;;;;;;;;;;;;;6205756;28;19922;-68